Terminal Aerodrome Forecast
Issued by NWS Twin Cities, MN

Home | Current Version | Previous Version | Graphics & Text | Print | Product List | Glossary On
Versions: 1 2 3 4 5 6 7 8 9 10 11 12 13 14 15 16 17 18 19 20 21 22
139
FTUS43 KMPX 092154 AAA
TAFSTC
TAF AMD
KSTC 092154Z 0922/1018 28007KT P6SM SCT130
     FM100000 21006KT P6SM SCT040 OVC100
     FM101000 31010KT P6SM BKN025=

USA.gov is the U.S. government's official web portal to all federal, state and local government web resources and services.